Time;durP1;ratioP1;P1;durP2;ratioP2;P2;SDS_P1;SDS_P2;PMS_P1;PMS_P2;Temp;Humidity;BMP_temperature;BMP_pressure;BME280_temperature;BME280_humidity;BME280_pressure;Samples;Min_cycle;Max_cycle;Signal;HPM_P1;HPM_P2
2022/06/21 00:00:35;;;;;;;3.00;2.38;;;13.90;69.60;;;;;;5134357;27;19956;-48
2022/06/21 00:03:07;;;;;;;4.60;2.40;;;13.90;69.70;;;;;;5134336;27;20031;-48
2022/06/21 00:05:36;;;;;;;3.83;2.53;;;13.90;69.90;;;;;;5134270;27;20463;-48
2022/06/21 00:08:11;;;;;;;5.68;2.17;;;13.80;70.00;;;;;;5134569;27;20030;-48
2022/06/21 00:10:37;;;;;;;4.07;2.65;;;13.80;70.30;;;;;;5133063;27;20027;-48
2022/06/21 00:13:07;;;;;;;4.68;2.25;;;13.80;70.40;;;;;;5134356;27;20042;-51
2022/06/21 00:15:33;;;;;;;6.60;2.33;;;13.80;70.50;;;;;;5134439;27;20380;-51
2022/06/21 00:17:59;;;;;;;3.00;2.38;;;13.80;70.60;;;;;;5133968;27;20129;-52
2022/06/21 00:20:27;;;;;;;6.68;2.75;;;13.80;70.40;;;;;;5132856;28;20086;-48
2022/06/21 00:22:53;;;;;;;4.15;2.28;;;13.80;70.60;;;;;;5133978;27;20015;-51
2022/06/21 00:25:26;;;;;;;8.18;3.63;;;13.80;70.50;;;;;;5134028;27;20055;-48
2022/06/21 00:27:54;;;;;;;3.28;2.25;;;13.80;70.80;;;;;;5132868;28;20475;-50
2022/06/21 00:30:20;;;;;;;4.82;2.42;;;13.80;71.00;;;;;;5133895;27;20057;-50
2022/06/21 00:32:48;;;;;;;7.47;2.08;;;13.60;71.70;;;;;;5134095;27;20407;-52
2022/06/21 00:35:16;;;;;;;5.53;2.60;;;13.30;72.80;;;;;;5133875;27;20023;-51
2022/06/21 00:37:43;;;;;;;5.35;2.55;;;13.30;73.70;;;;;;5134119;27;20032;-49
2022/06/21 00:40:26;;;;;;;6.75;3.45;;;13.30;73.60;;;;;;5133641;27;20027;-50
2022/06/21 00:43:10;;;;;;;4.10;2.40;;;13.30;73.70;;;;;;5133714;27;20015;-50
2022/06/21 00:45:39;;;;;;;7.82;2.53;;;13.20;73.90;;;;;;5134058;27;20106;-50
2022/06/21 00:48:16;;;;;;;4.68;2.35;;;13.20;74.00;;;;;;5132428;27;20027;-49
2022/06/21 00:50:47;;;;;;;3.80;2.67;;;13.20;74.10;;;;;;5134317;27;20080;-47
2022/06/21 00:53:21;;;;;;;;;;;13.20;74.00;;;;;;5134028;27;20019;-47
2022/06/21 00:56:08;;;;;;;8.48;3.70;;;13.20;74.00;;;;;;5133863;27;19907;-50
2022/06/21 00:58:33;;;;;;;3.20;2.70;;;13.20;74.20;;;;;;5133511;27;20031;-51
2022/06/21 01:01:07;;;;;;;6.07;2.70;;;13.20;74.20;;;;;;5133423;27;20026;-48
2022/06/21 01:03:38;;;;;;;5.43;2.70;;;13.20;74.10;;;;;;5132080;28;20030;-47
2022/06/21 01:06:08;;;;;;;4.07;2.85;;;13.20;74.10;;;;;;5136673;27;20026;-51
2022/06/21 01:08:35;;;;;;;;;;;13.10;74.20;;;;;;5138306;27;20110;-47
2022/06/21 01:11:05;;;;;;;5.75;3.60;;;13.20;74.30;;;;;;5137578;27;19934;-50
2022/06/21 01:13:35;;;;;;;2.90;2.70;;;13.10;74.60;;;;;;5137694;27;20414;-47
2022/06/21 01:16:00;;;;;;;5.78;2.72;;;13.00;74.80;;;;;;5137512;27;20023;-50
2022/06/21 01:18:27;;;;;;;3.17;2.25;;;12.90;75.00;;;;;;5137026;27;20043;-49
2022/06/21 01:20:56;;;;;;;3.15;2.42;;;12.80;75.50;;;;;;5137318;27;20428;-50
2022/06/21 01:23:43;;;;;;;3.97;3.00;;;12.80;75.90;;;;;;5135666;27;20033;-50
2022/06/21 01:26:46;;;;;;;4.10;2.60;;;12.60;76.30;;;;;;5137125;27;20027;-48
2022/06/21 01:29:21;;;;;;;8.55;3.53;;;12.50;76.80;;;;;;5136933;27;20462;-49
2022/06/21 01:31:48;;;;;;;4.18;2.35;;;12.20;77.80;;;;;;5136821;27;20024;-48
2022/06/21 01:34:23;;;;;;;2.90;2.60;;;12.00;78.80;;;;;;5136772;27;20160;-49
2022/06/21 01:36:56;;;;;;;4.88;2.70;;;12.00;79.20;;;;;;5136710;27;20121;-50
2022/06/21 01:39:26;;;;;;;4.07;2.80;;;12.10;79.30;;;;;;5136865;27;20466;-48
2022/06/21 01:42:02;;;;;;;6.95;3.55;;;12.30;78.90;;;;;;5136748;27;20027;-49
2022/06/21 01:44:34;;;;;;;6.05;2.92;;;12.30;78.20;;;;;;5137049;27;20102;-50
2022/06/21 01:47:02;;;;;;;5.63;2.92;;;12.40;78.00;;;;;;5135444;27;20019;-48
2022/06/21 01:49:31;;;;;;;6.22;2.75;;;12.40;77.80;;;;;;5118352;27;20390;-50
2022/06/21 01:52:10;;;;;;;5.13;2.70;;;12.40;77.80;;;;;;5136431;27;20030;-48
2022/06/21 01:54:42;;;;;;;3.55;3.10;;;12.40;77.80;;;;;;5136831;27;20391;-48
2022/06/21 01:57:09;;;;;;;3.45;2.25;;;12.40;77.70;;;;;;5135646;27;20445;-48
2022/06/21 01:59:40;;;;;;;3.45;2.72;;;12.40;77.80;;;;;;5136593;27;20035;-48
2022/06/21 02:02:09;;;;;;;2.90;2.60;;;12.30;77.70;;;;;;5136605;27;20027;-48
2022/06/21 02:04:41;;;;;;;4.85;2.58;;;12.30;77.90;;;;;;5136440;27;20599;-48
2022/06/21 02:07:11;;;;;;;3.67;3.17;;;12.30;78.00;;;;;;5135038;27;20162;-48
2022/06/21 02:09:44;;;;;;;;;;;12.20;78.00;;;;;;5137003;27;20421;-48
2022/06/21 02:12:12;;;;;;;5.72;2.85;;;12.20;78.40;;;;;;5136528;27;20311;-48
2022/06/21 02:14:47;;;;;;;6.57;2.63;;;12.10;78.70;;;;;;5136110;27;20019;-51
2022/06/21 02:17:21;;;;;;;5.13;2.53;;;12.00;78.90;;;;;;5135005;27;20025;-49
2022/06/21 02:19:50;;;;;;;6.05;2.88;;;12.00;79.00;;;;;;5135824;27;20075;-48
2022/06/21 02:22:24;;;;;;;3.85;2.63;;;11.90;79.20;;;;;;5135954;27;20098;-47
2022/06/21 02:24:51;;;;;;;9.10;3.20;;;12.00;79.30;;;;;;5135923;27;20023;-48
2022/06/21 02:27:20;;;;;;;4.65;3.05;;;11.90;79.30;;;;;;5135837;27;20091;-48
2022/06/21 02:29:56;;;;;;;5.50;3.03;;;11.90;79.40;;;;;;5135715;27;20038;-48
2022/06/21 02:32:39;;;;;;;4.78;3.13;;;11.90;79.60;;;;;;5135894;27;20031;-48
2022/06/21 02:35:18;;;;;;;4.28;2.83;;;12.00;79.30;;;;;;5135996;27;20030;-49
2022/06/21 02:37:46;;;;;;;5.20;3.42;;;11.90;79.40;;;;;;5136014;27;20087;-48
2022/06/21 02:40:20;;;;;;;7.50;4.75;;;11.80;80.30;;;;;;5135531;27;20034;-49
2022/06/21 02:42:48;;;;;;;7.05;3.53;;;11.80;80.20;;;;;;5135524;27;20031;-49
2022/06/21 02:45:27;;;;;;;8.18;3.50;;;11.80;80.40;;;;;;5135605;27;20023;-53
2022/06/21 02:47:56;;;;;;;5.38;3.70;;;11.70;80.40;;;;;;5135411;27;20031;-50
2022/06/21 02:50:37;;;;;;;3.72;2.72;;;11.80;80.20;;;;;;5135518;27;20091;-49
2022/06/21 20:16:45;;;;;;;6.57;1.42;;;19.80;51.40;;;;;;5071019;28;20391;-49
2022/06/21 20:19:14;;;;;;;5.63;1.42;;;19.80;51.50;;;;;;5070901;28;20047;-50
2022/06/21 20:21:45;;;;;;;2.80;1.20;;;19.90;51.40;;;;;;5070758;28;20096;-49
2022/06/21 20:24:10;;;;;;;5.55;1.20;;;19.90;51.40;;;;;;5070237;28;20021;-50
2022/06/21 20:26:42;;;;;;;2.63;1.08;;;20.00;51.30;;;;;;5070114;28;20024;-49
2022/06/21 20:29:20;;;;;;;1.90;1.30;;;20.00;51.10;;;;;;5070295;28;20405;-51
2022/06/21 20:31:58;;;;;;;5.68;1.25;;;20.00;51.20;;;;;;5070322;28;20021;-50
2022/06/21 20:34:26;;;;;;;2.50;1.80;;;19.90;51.20;;;;;;5070029;28;20078;-48
2022/06/21 20:37:07;;;;;;;6.95;2.17;;;19.80;51.30;;;;;;5069993;28;20051;-49
2022/06/21 20:39:47;;;;;;;2.90;1.27;;;19.80;51.40;;;;;;5068532;28;20021;-48
2022/06/21 20:42:20;;;;;;;2.35;1.30;;;19.80;51.40;;;;;;5069864;28;20028;-48
2022/06/21 20:44:58;;;;;;;7.80;2.13;;;19.80;51.50;;;;;;5068548;28;20029;-51
2022/06/21 20:47:54;;;;;;;5.63;1.92;;;19.80;51.70;;;;;;5070111;28;20372;-50
2022/06/21 20:50:23;;;;;;;4.57;1.98;;;19.70;51.70;;;;;;5068476;28;20032;-52
2022/06/21 20:53:11;;;;;;;7.10;2.10;;;19.60;51.90;;;;;;5069778;28;20028;-49
2022/06/21 20:56:11;;;;;;;8.15;1.95;;;19.60;51.90;;;;;;5069241;28;20033;-49
2022/06/21 20:58:41;;;;;;;9.10;2.13;;;19.60;51.80;;;;;;5069769;28;20024;-52
2022/06/21 21:01:10;;;;;;;7.18;1.40;;;19.60;51.80;;;;;;5068109;28;20037;-49
2022/06/21 21:03:39;;;;;;;2.70;1.23;;;19.60;51.60;;;;;;5069481;28;20032;-52
2022/06/21 21:06:07;;;;;;;8.13;1.60;;;19.60;51.60;;;;;;5069377;28;20040;-51
2022/06/21 21:08:41;;;;;;;13.40;4.20;;;19.70;51.50;;;;;;5069596;28;20059;-49
2022/06/21 21:11:12;;;;;;;11.73;4.07;;;19.70;51.20;;;;;;5069255;28;20075;-50
2022/06/21 21:13:43;;;;;;;8.55;2.88;;;19.70;51.30;;;;;;5069527;28;20032;-50
2022/06/21 21:16:19;;;;;;;12.57;1.98;;;19.60;51.40;;;;;;5069022;28;20400;-50
2022/06/21 21:18:52;;;;;;;5.32;1.50;;;19.60;51.60;;;;;;5069371;28;20060;-50
2022/06/21 21:21:22;;;;;;;4.82;1.88;;;19.60;51.60;;;;;;5068521;28;20021;-51
2022/06/21 21:23:50;;;;;;;4.30;1.30;;;19.50;51.40;;;;;;5069520;28;20021;-48
2022/06/21 21:26:26;;;;;;;4.80;1.40;;;19.50;51.30;;;;;;5065870;28;20044;-52
2022/06/21 21:28:55;;;;;;;2.80;1.30;;;19.50;51.40;;;;;;5055983;28;20021;-51
2022/06/21 21:31:24;;;;;;;3.17;1.40;;;19.50;51.40;;;;;;5058816;28;20112;-49
2022/06/21 21:34:02;;;;;;;6.07;1.25;;;19.40;51.70;;;;;;5057608;28;20017;-49
2022/06/21 21:37:08;;;;;;;4.70;1.63;;;19.30;51.80;;;;;;5057218;28;20469;-48
2022/06/21 21:39:56;;;;;;;5.20;1.50;;;19.30;52.20;;;;;;5057181;28;20503;-49
2022/06/21 21:42:40;;;;;;;6.30;1.23;;;19.10;52.40;;;;;;5058205;28;20025;-52
2022/06/21 21:45:10;;;;;;;3.20;1.20;;;19.00;52.90;;;;;;5057408;28;20415;-50
2022/06/21 21:47:41;;;;;;;2.58;1.35;;;18.90;53.00;;;;;;5056230;28;20537;-50
2022/06/21 21:50:07;;;;;;;2.35;1.23;;;18.90;53.10;;;;;;5055975;28;20047;-49
2022/06/21 21:52:36;;;;;;;5.35;1.50;;;18.80;53.40;;;;;;5056779;28;20025;-49
2022/06/21 21:55:16;;;;;;;1.73;1.23;;;18.70;53.90;;;;;;5055816;28;20057;-49
2022/06/21 21:57:43;;;;;;;5.20;2.00;;;18.60;54.10;;;;;;5056670;28;20068;-49
2022/06/21 22:00:33;;;;;;;2.85;1.20;;;18.60;54.30;;;;;;5056444;28;20033;-50
2022/06/21 22:03:32;;;;;;;7.53;1.92;;;18.60;54.40;;;;;;5057334;28;20056;-51
2022/06/21 22:06:16;;;;;;;5.85;1.48;;;18.60;54.50;;;;;;5057486;28;20025;-50
2022/06/21 22:09:01;;;;;;;6.45;1.65;;;18.60;54.60;;;;;;5055478;28;20032;-50
2022/06/21 22:11:40;;;;;;;6.45;1.40;;;18.50;54.70;;;;;;5055279;28;20083;-49
2022/06/21 22:14:37;;;;;;;5.15;1.20;;;18.50;54.80;;;;;;5055282;28;20080;-52
2022/06/21 22:17:21;;;;;;;6.43;1.70;;;18.40;54.90;;;;;;5054724;28;20068;-49
2022/06/21 22:20:11;;;;;;;2.88;1.42;;;18.30;55.20;;;;;;5055063;28;20445;-50
2022/06/21 22:22:50;;;;;;;4.90;1.55;;;18.30;55.30;;;;;;5055394;28;20374;-50
2022/06/21 22:25:48;;;;;;;7.15;1.77;;;18.20;55.70;;;;;;5054983;28;20029;-50
2022/06/21 22:28:32;;;;;;;4.20;1.60;;;18.20;55.90;;;;;;5053079;28;20501;-50
2022/06/21 22:31:18;;;;;;;2.58;1.40;;;18.20;56.10;;;;;;5055030;28;20110;-51
2022/06/21 22:33:48;;;;;;;6.40;2.80;;;18.10;56.50;;;;;;5055844;28;20044;-49
2022/06/21 22:36:21;;;;;;;2.95;1.48;;;18.10;56.50;;;;;;5056225;28;20090;-49
2022/06/21 22:38:48;;;;;;;5.57;1.38;;;18.10;56.50;;;;;;5054167;28;20037;-50
2022/06/21 22:41:15;;;;;;;2.33;1.05;;;18.00;56.60;;;;;;5053132;28;20025;-49
2022/06/21 22:43:45;;;;;;;4.63;1.80;;;18.10;56.60;;;;;;5055369;28;20057;-51
2022/06/21 22:46:17;;;;;;;3.90;1.40;;;18.10;56.50;;;;;;5053687;28;20029;-50
2022/06/21 22:48:52;;;;;;;4.43;1.67;;;18.10;56.60;;;;;;5055721;28;20037;-49
2022/06/21 22:51:22;;;;;;;5.13;2.22;;;18.20;56.30;;;;;;5055145;28;20052;-50
2022/06/21 22:53:49;;;;;;;;;;;18.20;56.40;;;;;;5053933;28;20048;-51
2022/06/21 22:56:17;;;;;;;4.75;1.30;;;18.10;56.50;;;;;;5053639;28;20379;-49
2022/06/21 22:59:06;;;;;;;4.68;2.25;;;18.10;56.80;;;;;;5053012;28;20023;-51
2022/06/21 23:01:37;;;;;;;6.57;1.40;;;18.00;56.90;;;;;;5053458;28;20021;-51
2022/06/21 23:04:16;;;;;;;5.90;2.20;;;18.00;57.00;;;;;;5053273;28;20112;-49
2022/06/21 23:06:44;;;;;;;9.88;2.78;;;17.90;57.20;;;;;;5055464;28;20017;-51
2022/06/21 23:09:18;;;;;;;6.43;3.22;;;17.80;57.40;;;;;;5055392;28;20079;-49
2022/06/21 23:11:46;;;;;;;4.18;1.30;;;17.80;57.50;;;;;;5053932;28;20495;-49
2022/06/21 23:14:15;;;;;;;2.17;1.10;;;17.80;57.70;;;;;;5054619;28;20037;-48
2022/06/21 23:16:42;;;;;;;2.05;1.08;;;17.80;58.00;;;;;;5054232;28;20358;-48
2022/06/21 23:19:16;;;;;;;2.60;1.25;;;17.80;58.10;;;;;;5053917;28;20395;-48
2022/06/21 23:21:54;;;;;;;3.55;1.40;;;17.70;58.20;;;;;;5054982;28;20029;-50
2022/06/21 23:24:21;;;;;;;1.77;1.20;;;17.70;58.30;;;;;;5054978;28;20017;-48
2022/06/21 23:27:00;;;;;;;5.88;1.20;;;17.70;58.40;;;;;;5054447;28;20521;-50
2022/06/21 23:29:33;;;;;;;7.85;1.38;;;17.70;58.50;;;;;;5054674;28;20021;-49
2022/06/21 23:32:03;;;;;;;4.03;1.45;;;17.70;58.60;;;;;;5054899;28;20040;-54
2022/06/21 23:34:49;;;;;;;6.88;1.15;;;17.60;58.70;;;;;;5054720;28;20047;-49
2022/06/21 23:37:21;;;;;;;1.42;1.27;;;17.60;58.70;;;;;;5054469;28;20041;-49
2022/06/21 23:39:47;;;;;;;1.85;1.17;;;17.60;58.90;;;;;;5054061;28;20504;-48
2022/06/21 23:42:24;;;;;;;4.88;1.38;;;17.60;58.80;;;;;;5054202;28;20100;-50
2022/06/21 23:44:58;;;;;;;7.05;1.38;;;17.50;58.80;;;;;;5053581;28;20385;-55
2022/06/21 23:47:27;;;;;;;4.10;1.48;;;17.50;59.00;;;;;;5053476;28;20492;-48
2022/06/21 23:49:54;;;;;;;3.17;1.23;;;17.50;59.10;;;;;;5052708;28;20354;-50
2022/06/21 23:52:22;;;;;;;6.80;1.80;;;17.50;59.00;;;;;;5053869;28;20025;-52
2022/06/21 23:54:51;;;;;;;5.47;0.95;;;17.50;59.10;;;;;;5053316;28;20041;-50
2022/06/21 23:57:19;;;;;;;3.72;1.42;;;17.50;59.10;;;;;;5053992;28;20071;-53
2022/06/21 23:59:45;;;;;;;5.47;1.20;;;17.50;58.90;;;;;;5053926;28;20021;-50
